sensor_id;sensor_type;location;lat;lon;timestamp;pressure;altitude;pressure_sealevel;temperature;humidity
68329;BME280;55182;56.864;60.554;2023-03-14T00:00:21;75600.31;;;-143.60;99.88
68329;BME280;55182;56.864;60.554;2023-03-14T00:02:51;75604.31;;;-143.60;99.88
68329;BME280;55182;56.864;60.554;2023-03-14T00:05:16;75606.34;;;-143.60;100.00
68329;BME280;55182;56.864;60.554;2023-03-14T00:07:41;75608.34;;;-143.60;100.00
68329;BME280;55182;56.864;60.554;2023-03-14T00:10:08;75612.34;;;-143.60;100.00
68329;BME280;55182;56.864;60.554;2023-03-14T00:12:34;75604.31;;;-143.60;100.00
68329;BME280;55182;56.864;60.554;2023-03-14T00:15:00;75606.34;;;-143.60;100.00
68329;BME280;55182;56.864;60.554;2023-03-14T00:17:26;75608.34;;;-143.60;100.00
68329;BME280;55182;56.864;60.554;2023-03-14T00:19:52;75608.34;;;-143.60;100.00
68329;BME280;55182;56.864;60.554;2023-03-14T00:22:17;75604.31;;;-143.60;100.00
68329;BME280;55182;56.864;60.554;2023-03-14T00:24:43;75604.31;;;-143.60;100.00
68329;BME280;55182;56.864;60.554;2023-03-14T00:27:09;75604.31;;;-143.60;100.00
68329;BME280;55182;56.864;60.554;2023-03-14T00:29:35;75608.34;;;-143.60;100.00
68329;BME280;55182;56.864;60.554;2023-03-14T00:32:00;75608.34;;;-143.60;100.00
68329;BME280;55182;56.864;60.554;2023-03-14T00:34:29;75612.34;;;-143.60;100.00
68329;BME280;55182;56.864;60.554;2023-03-14T00:36:55;75616.38;;;-143.60;100.00
68329;BME280;55182;56.864;60.554;2023-03-14T00:39:20;75612.34;;;-143.60;100.00
68329;BME280;55182;56.864;60.554;2023-03-14T00:41:46;75608.34;;;-143.60;100.00
68329;BME280;55182;56.864;60.554;2023-03-14T00:44:11;75612.34;;;-143.60;100.00
68329;BME280;55182;56.864;60.554;2023-03-14T00:46:37;75620.41;;;-143.60;100.00
68329;BME280;55182;56.864;60.554;2023-03-14T00:49:02;75632.44;;;-143.60;100.00
68329;BME280;55182;56.864;60.554;2023-03-14T00:51:28;75632.44;;;-143.60;100.00
68329;BME280;55182;56.864;60.554;2023-03-14T00:53:54;75638.47;;;-143.60;100.00
68329;BME280;55182;56.864;60.554;2023-03-14T00:56:20;75642.50;;;-143.60;100.00
68329;BME280;55182;56.864;60.554;2023-03-14T00:58:45;75652.53;;;-143.60;100.00
68329;BME280;55182;56.864;60.554;2023-03-14T01:01:17;75668.63;;;-143.60;100.00
68329;BME280;55182;56.864;60.554;2023-03-14T01:03:44;75666.59;;;-143.60;100.00
68329;BME280;55182;56.864;60.554;2023-03-14T01:06:11;75674.66;;;-143.60;100.00
68329;BME280;55182;56.864;60.554;2023-03-14T01:08:36;75682.69;;;-143.60;100.00
68329;BME280;55182;56.864;60.554;2023-03-14T01:11:06;75684.69;;;-143.60;100.00
68329;BME280;55182;56.864;60.554;2023-03-14T01:13:31;75686.69;;;-143.60;99.43
68329;BME280;55182;56.864;60.554;2023-03-14T01:16:00;75688.72;;;-143.60;98.56
68329;BME280;55182;56.864;60.554;2023-03-14T01:18:26;75708.81;;;-143.60;97.39
68329;BME280;55182;56.864;60.554;2023-03-14T01:20:52;75716.84;;;-143.60;96.66
68329;BME280;55182;56.864;60.554;2023-03-14T01:23:18;75724.88;;;-143.60;95.98
68329;BME280;55182;56.864;60.554;2023-03-14T01:25:43;75740.94;;;-143.60;94.71
68329;BME280;55182;56.864;60.554;2023-03-14T01:28:09;75738.94;;;-143.60;93.98
68329;BME280;55182;56.864;60.554;2023-03-14T01:30:35;75753.00;;;-143.60;93.23
68329;BME280;55182;56.864;60.554;2023-03-14T01:33:00;75769.09;;;-143.60;93.68
68329;BME280;55182;56.864;60.554;2023-03-14T01:35:26;75775.09;;;-143.60;94.07
68329;BME280;55182;56.864;60.554;2023-03-14T01:37:54;75797.22;;;-143.60;94.32
68329;BME280;55182;56.864;60.554;2023-03-14T01:40:21;75817.31;;;-143.60;94.88
68329;BME280;55182;56.864;60.554;2023-03-14T01:42:55;75823.34;;;-143.60;95.32
68329;BME280;55182;56.864;60.554;2023-03-14T01:48:05;75845.44;;;-143.60;95.25
68329;BME280;55182;56.864;60.554;2023-03-14T01:50:31;75833.38;;;-143.60;94.86
68329;BME280;55182;56.864;60.554;2023-03-14T01:52:56;75879.59;;;-143.60;94.32
68329;BME280;55182;56.864;60.554;2023-03-14T01:55:23;75891.66;;;-143.60;94.04
68329;BME280;55182;56.864;60.554;2023-03-14T01:58:08;75897.69;;;-143.60;94.32
68329;BME280;55182;56.864;60.554;2023-03-14T02:00:34;75905.72;;;-143.60;94.03
68329;BME280;55182;56.864;60.554;2023-03-14T02:03:05;75919.78;;;-143.60;93.91
68329;BME280;55182;56.864;60.554;2023-03-14T02:05:34;75917.78;;;-143.60;93.65
68329;BME280;55182;56.864;60.554;2023-03-14T02:08:08;75917.78;;;-143.60;93.39
68329;BME280;55182;56.864;60.554;2023-03-14T02:10:47;75933.84;;;-143.60;93.22
68329;BME280;55182;56.864;60.554;2023-03-14T02:13:15;75935.84;;;-143.60;93.34
68329;BME280;55182;56.864;60.554;2023-03-14T02:15:52;75941.88;;;-143.60;93.18
68329;BME280;55182;56.864;60.554;2023-03-14T02:18:50;75937.88;;;-143.60;92.30
68329;BME280;55182;56.864;60.554;2023-03-14T02:21:45;75949.91;;;-143.60;91.59
68329;BME280;55182;56.864;60.554;2023-03-14T02:24:19;75941.88;;;-143.60;91.12
68329;BME280;55182;56.864;60.554;2023-03-14T02:29:27;75949.91;;;-143.60;91.00
68329;BME280;55182;56.864;60.554;2023-03-14T02:31:54;75953.94;;;-143.60;90.42
68329;BME280;55182;56.864;60.554;2023-03-14T02:34:19;75961.97;;;-143.60;90.26
68329;BME280;55182;56.864;60.554;2023-03-14T02:36:45;75959.97;;;-143.60;90.44
68329;BME280;55182;56.864;60.554;2023-03-14T02:39:14;75966.00;;;-143.60;90.20
68329;BME280;55182;56.864;60.554;2023-03-14T02:41:43;75966.00;;;-143.60;90.61
68329;BME280;55182;56.864;60.554;2023-03-14T02:44:09;75961.97;;;-143.60;90.77
68329;BME280;55182;56.864;60.554;2023-03-14T02:46:35;75970.00;;;-143.60;91.09
68329;BME280;55182;56.864;60.554;2023-03-14T02:49:04;75970.00;;;-143.60;91.38
68329;BME280;55182;56.864;60.554;2023-03-14T02:51:32;75974.03;;;-143.60;91.50
68329;BME280;55182;56.864;60.554;2023-03-14T02:53:58;75974.03;;;-143.60;91.01
68329;BME280;55182;56.864;60.554;2023-03-14T02:56:24;75976.03;;;-143.60;90.99
68329;BME280;55182;56.864;60.554;2023-03-14T02:58:50;75986.09;;;-143.60;90.20
68329;BME280;55182;56.864;60.554;2023-03-14T03:01:35;75982.06;;;-143.60;90.18
68329;BME280;55182;56.864;60.554;2023-03-14T03:04:01;75986.09;;;-143.60;89.47
68329;BME280;55182;56.864;60.554;2023-03-14T03:06:26;75994.13;;;-143.60;88.63
68329;BME280;55182;56.864;60.554;2023-03-14T03:08:52;75996.13;;;-143.60;88.28
68329;BME280;55182;56.864;60.554;2023-03-14T03:11:18;76000.16;;;-143.60;88.20
68329;BME280;55182;56.864;60.554;2023-03-14T03:13:43;76002.16;;;-143.60;88.39
68329;BME280;55182;56.864;60.554;2023-03-14T03:16:09;76012.22;;;-143.60;88.39
68329;BME280;55182;56.864;60.554;2023-03-14T03:18:35;76022.25;;;-143.60;88.57
68329;BME280;55182;56.864;60.554;2023-03-14T03:21:02;76028.28;;;-143.60;88.63
68329;BME280;55182;56.864;60.554;2023-03-14T03:23:29;76028.28;;;-143.60;88.56
68329;BME280;55182;56.864;60.554;2023-03-14T03:25:54;76032.31;;;-143.60;88.38
68329;BME280;55182;56.864;60.554;2023-03-14T03:28:20;76042.34;;;-143.60;88.19
68329;BME280;55182;56.864;60.554;2023-03-14T03:30:46;76046.38;;;-143.60;88.08
68329;BME280;55182;56.864;60.554;2023-03-14T03:33:11;76054.41;;;-143.60;87.01
68329;BME280;55182;56.864;60.554;2023-03-14T03:35:45;76058.44;;;-143.60;85.63
68329;BME280;55182;56.864;60.554;2023-03-14T03:38:11;76070.50;;;-143.60;85.19
68329;BME280;55182;56.864;60.554;2023-03-14T03:40:37;76074.50;;;-143.60;84.85
68329;BME280;55182;56.864;60.554;2023-03-14T03:43:04;76078.53;;;-143.60;84.15
68329;BME280;55182;56.864;60.554;2023-03-14T03:45:30;76092.59;;;-143.60;82.81
68329;BME280;55182;56.864;60.554;2023-03-14T03:47:56;76098.63;;;-143.60;82.02
68329;BME280;55182;56.864;60.554;2023-03-14T03:50:22;76102.63;;;-143.60;79.99
68329;BME280;55182;56.864;60.554;2023-03-14T03:52:47;76106.66;;;-143.60;78.91
68329;BME280;55182;56.864;60.554;2023-03-14T03:55:13;76136.81;;;-143.60;78.86
68329;BME280;55182;56.864;60.554;2023-03-14T03:57:39;76134.78;;;-143.60;78.36
68329;BME280;55182;56.864;60.554;2023-03-14T04:00:04;76138.81;;;-143.60;78.11
68329;BME280;55182;56.864;60.554;2023-03-14T04:02:39;76146.84;;;-143.60;78.57
68329;BME280;55182;56.864;60.554;2023-03-14T04:05:06;76154.88;;;-143.60;78.66
68329;BME280;55182;56.864;60.554;2023-03-14T04:07:32;76156.91;;;-143.60;78.41
68329;BME280;55182;56.864;60.554;2023-03-14T04:09:58;76170.97;;;-143.60;77.44
68329;BME280;55182;56.864;60.554;2023-03-14T04:12:36;76177.00;;;-143.60;78.49
68329;BME280;55182;56.864;60.554;2023-03-14T04:15:09;76181.00;;;-143.60;77.86
68329;BME280;55182;56.864;60.554;2023-03-14T04:17:36;76183.03;;;-143.60;77.97
68329;BME280;55182;56.864;60.554;2023-03-14T04:20:02;76189.03;;;-143.60;78.51
68329;BME280;55182;56.864;60.554;2023-03-14T04:22:33;76191.06;;;-143.60;79.22
68329;BME280;55182;56.864;60.554;2023-03-14T04:24:59;76193.06;;;-143.60;78.91
68329;BME280;55182;56.864;60.554;2023-03-14T04:27:25;76191.06;;;-143.60;79.41
68329;BME280;55182;56.864;60.554;2023-03-14T04:29:51;76193.06;;;-143.60;79.40
68329;BME280;55182;56.864;60.554;2023-03-14T04:32:25;76193.06;;;-143.60;79.78
68329;BME280;55182;56.864;60.554;2023-03-14T04:34:52;76199.09;;;-143.60;79.75
68329;BME280;55182;56.864;60.554;2023-03-14T04:37:17;76193.06;;;-143.60;79.71
68329;BME280;55182;56.864;60.554;2023-03-14T04:39:43;76181.00;;;-143.60;79.55
68329;BME280;55182;56.864;60.554;2023-03-14T04:42:15;76185.03;;;-143.60;78.86
68329;BME280;55182;56.864;60.554;2023-03-14T04:44:41;76187.03;;;-143.60;78.92
68329;BME280;55182;56.864;60.554;2023-03-14T04:47:07;76197.09;;;-143.60;78.84
68329;BME280;55182;56.864;60.554;2023-03-14T04:49:33;76205.13;;;-143.60;78.71
68329;BME280;55182;56.864;60.554;2023-03-14T04:52:00;76211.16;;;-143.60;79.29
68329;BME280;55182;56.864;60.554;2023-03-14T04:54:28;76215.16;;;-143.60;79.32
68329;BME280;55182;56.864;60.554;2023-03-14T04:56:56;76205.13;;;-143.60;79.64
68329;BME280;55182;56.864;60.554;2023-03-14T04:59:23;76209.13;;;-143.60;79.11
68329;BME280;55182;56.864;60.554;2023-03-14T05:01:51;76203.13;;;-143.60;78.89
68329;BME280;55182;56.864;60.554;2023-03-14T05:04:26;76195.06;;;-143.60;79.55
68329;BME280;55182;56.864;60.554;2023-03-14T05:07:20;76201.09;;;-143.60;79.00
68329;BME280;55182;56.864;60.554;2023-03-14T05:09:54;76217.19;;;-143.60;76.79
68329;BME280;55182;56.864;60.554;2023-03-14T05:12:49;76227.22;;;-143.60;76.54
68329;BME280;55182;56.864;60.554;2023-03-14T05:15:38;76239.28;;;-143.60;76.59
68329;BME280;55182;56.864;60.554;2023-03-14T05:18:16;76239.28;;;-143.60;76.68
68329;BME280;55182;56.864;60.554;2023-03-14T05:20:56;76239.28;;;-143.60;76.65
68329;BME280;55182;56.864;60.554;2023-03-14T05:23:40;76229.25;;;-143.60;76.38
68329;BME280;55182;56.864;60.554;2023-03-14T05:26:14;76235.25;;;-143.60;75.94
68329;BME280;55182;56.864;60.554;2023-03-14T05:28:52;76247.31;;;-143.60;76.59
68329;BME280;55182;56.864;60.554;2023-03-14T05:31:38;76233.25;;;-143.60;75.92
68329;BME280;55182;56.864;60.554;2023-03-14T05:34:15;76243.31;;;-143.60;75.52
68329;BME280;55182;56.864;60.554;2023-03-14T05:37:01;76247.31;;;-143.60;76.28
68329;BME280;55182;56.864;60.554;2023-03-14T05:39:52;76247.31;;;-143.60;76.42
68329;BME280;55182;56.864;60.554;2023-03-14T05:42:36;76255.34;;;-143.60;75.81
68329;BME280;55182;56.864;60.554;2023-03-14T05:45:26;76259.38;;;-143.60;75.42
68329;BME280;55182;56.864;60.554;2023-03-14T05:48:07;76271.44;;;-143.60;74.11
68329;BME280;55182;56.864;60.554;2023-03-14T05:51:02;76283.50;;;-143.60;74.25
68329;BME280;55182;56.864;60.554;2023-03-14T05:53:54;76283.50;;;-143.60;75.18
68329;BME280;55182;56.864;60.554;2023-03-14T05:56:38;76261.38;;;-143.60;75.10
68329;BME280;55182;56.864;60.554;2023-03-14T05:59:32;76271.44;;;-143.60;74.69
68329;BME280;55182;56.864;60.554;2023-03-14T06:02:33;76279.47;;;-143.60;74.44
68329;BME280;55182;56.864;60.554;2023-03-14T06:05:07;76283.50;;;-143.60;74.95
68329;BME280;55182;56.864;60.554;2023-03-14T06:07:32;76271.44;;;-143.60;75.88
68329;BME280;55182;56.864;60.554;2023-03-14T06:09:58;76273.44;;;-143.60;74.85
68329;BME280;55182;56.864;60.554;2023-03-14T06:12:24;76285.50;;;-143.60;74.74
68329;BME280;55182;56.864;60.554;2023-03-14T06:14:50;76279.47;;;-143.60;75.78
68329;BME280;55182;56.864;60.554;2023-03-14T06:17:15;76295.56;;;-143.60;75.39
68329;BME280;55182;56.864;60.554;2023-03-14T06:19:48;76305.59;;;-143.60;74.45
68329;BME280;55182;56.864;60.554;2023-03-14T06:22:14;76331.72;;;-143.60;73.49
68329;BME280;55182;56.864;60.554;2023-03-14T06:24:40;76339.75;;;-143.60;74.66
68329;BME280;55182;56.864;60.554;2023-03-14T06:27:05;76333.72;;;-143.60;73.72
68329;BME280;55182;56.864;60.554;2023-03-14T06:29:31;76311.63;;;-143.60;74.66
68329;BME280;55182;56.864;60.554;2023-03-14T06:31:57;76299.56;;;-143.60;72.03
68329;BME280;55182;56.864;60.554;2023-03-14T06:34:23;76297.56;;;-143.60;71.21
68329;BME280;55182;56.864;60.554;2023-03-14T06:36:48;76307.59;;;-143.60;69.08
68329;BME280;55182;56.864;60.554;2023-03-14T06:39:14;76327.69;;;-143.60;64.55
68329;BME280;55182;56.864;60.554;2023-03-14T06:41:43;76347.81;;;-143.60;62.74
68329;BME280;55182;56.864;60.554;2023-03-14T06:44:09;76347.81;;;-143.60;61.20
68329;BME280;55182;56.864;60.554;2023-03-14T06:46:36;76343.78;;;-143.60;62.04
68329;BME280;55182;56.864;60.554;2023-03-14T06:49:02;76355.84;;;-143.60;60.73
68329;BME280;55182;56.864;60.554;2023-03-14T06:51:27;76341.78;;;-143.60;58.08
68329;BME280;55182;56.864;60.554;2023-03-14T06:53:53;76355.84;;;-143.60;58.75
68329;BME280;55182;56.864;60.554;2023-03-14T06:56:21;76355.84;;;-143.60;58.78
68329;BME280;55182;56.864;60.554;2023-03-14T06:58:47;76367.91;;;-143.60;57.75
68329;BME280;55182;56.864;60.554;2023-03-14T07:01:34;76363.88;;;-143.60;59.13
68329;BME280;55182;56.864;60.554;2023-03-14T07:04:05;76359.84;;;-143.60;57.56
68329;BME280;55182;56.864;60.554;2023-03-14T07:06:32;76363.88;;;-143.60;58.02
68329;BME280;55182;56.864;60.554;2023-03-14T07:08:58;76359.84;;;-143.60;57.86
68329;BME280;55182;56.864;60.554;2023-03-14T07:11:23;76351.81;;;-143.60;57.46
68329;BME280;55182;56.864;60.554;2023-03-14T07:13:49;76353.81;;;-143.60;56.98
68329;BME280;55182;56.864;60.554;2023-03-14T07:16:14;76353.81;;;-143.60;57.05
68329;BME280;55182;56.864;60.554;2023-03-14T07:18:40;76371.91;;;-143.60;57.21
68329;BME280;55182;56.864;60.554;2023-03-14T07:21:06;76365.88;;;-143.60;57.57
68329;BME280;55182;56.864;60.554;2023-03-14T07:23:31;76353.81;;;-143.60;58.33
68329;BME280;55182;56.864;60.554;2023-03-14T07:25:57;76355.84;;;-143.60;57.92
68329;BME280;55182;56.864;60.554;2023-03-14T07:28:25;76345.78;;;-143.60;58.67
68329;BME280;55182;56.864;60.554;2023-03-14T07:30:58;76327.69;;;-143.60;58.96
68329;BME280;55182;56.864;60.554;2023-03-14T07:33:29;76303.59;;;-143.60;57.86
68329;BME280;55182;56.864;60.554;2023-03-14T07:35:54;76291.53;;;-143.60;57.36
68329;BME280;55182;56.864;60.554;2023-03-14T07:38:20;76287.50;;;-143.60;55.34
68329;BME280;55182;56.864;60.554;2023-03-14T07:41:11;76293.53;;;-143.60;54.66
68329;BME280;55182;56.864;60.554;2023-03-14T07:43:45;76315.66;;;-143.60;54.96
68329;BME280;55182;56.864;60.554;2023-03-14T07:46:10;76317.66;;;-143.60;55.88
68329;BME280;55182;56.864;60.554;2023-03-14T07:48:36;76335.75;;;-143.60;56.48
68329;BME280;55182;56.864;60.554;2023-03-14T07:51:01;76339.75;;;-143.60;56.11
68329;BME280;55182;56.864;60.554;2023-03-14T07:53:27;76327.69;;;-143.60;56.32
68329;BME280;55182;56.864;60.554;2023-03-14T07:55:53;76331.72;;;-143.60;56.34
68329;BME280;55182;56.864;60.554;2023-03-14T07:58:19;76309.63;;;-143.60;57.25
68329;BME280;55182;56.864;60.554;2023-03-14T08:00:44;76299.56;;;-143.60;55.38
68329;BME280;55182;56.864;60.554;2023-03-14T08:03:10;76297.56;;;-143.60;56.03
68329;BME280;55182;56.864;60.554;2023-03-14T08:05:35;76291.53;;;-143.60;54.78
68329;BME280;55182;56.864;60.554;2023-03-14T08:08:01;76305.59;;;-143.60;56.22
68329;BME280;55182;56.864;60.554;2023-03-14T08:10:27;76309.63;;;-143.60;55.50
68329;BME280;55182;56.864;60.554;2023-03-14T08:12:56;76299.56;;;-143.60;56.04
68329;BME280;55182;56.864;60.554;2023-03-14T08:15:22;76287.50;;;-143.60;56.13
68329;BME280;55182;56.864;60.554;2023-03-14T08:17:49;76269.44;;;-143.60;56.50
68329;BME280;55182;56.864;60.554;2023-03-14T08:20:14;76263.41;;;-143.60;56.34
68329;BME280;55182;56.864;60.554;2023-03-14T08:22:40;76251.34;;;-143.60;56.48
68329;BME280;55182;56.864;60.554;2023-03-14T08:25:05;76259.38;;;-143.60;56.66
68329;BME280;55182;56.864;60.554;2023-03-14T08:27:31;76257.38;;;-143.60;57.27
68329;BME280;55182;56.864;60.554;2023-03-14T08:29:57;76241.28;;;-143.60;57.36
68329;BME280;55182;56.864;60.554;2023-03-14T08:32:22;76231.25;;;-143.60;56.87
68329;BME280;55182;56.864;60.554;2023-03-14T08:34:48;76227.22;;;-143.60;56.70
68329;BME280;55182;56.864;60.554;2023-03-14T08:37:13;76231.25;;;-143.60;57.04
68329;BME280;55182;56.864;60.554;2023-03-14T08:39:39;76247.31;;;-143.60;56.53
68329;BME280;55182;56.864;60.554;2023-03-14T08:42:04;76263.41;;;-143.60;57.17
68329;BME280;55182;56.864;60.554;2023-03-14T08:44:30;76255.34;;;-143.60;57.80
68329;BME280;55182;56.864;60.554;2023-03-14T08:46:56;76261.38;;;-143.60;57.99
68329;BME280;55182;56.864;60.554;2023-03-14T08:49:21;76259.38;;;-143.60;57.93
68329;BME280;55182;56.864;60.554;2023-03-14T08:51:47;76251.34;;;-143.60;58.62
68329;BME280;55182;56.864;60.554;2023-03-14T08:54:12;76245.31;;;-143.60;58.24
68329;BME280;55182;56.864;60.554;2023-03-14T08:56:38;76235.25;;;-143.60;59.15
68329;BME280;55182;56.864;60.554;2023-03-14T08:59:03;76211.16;;;-143.60;59.87
68329;BME280;55182;56.864;60.554;2023-03-14T09:01:29;76203.13;;;-143.60;59.13
68329;BME280;55182;56.864;60.554;2023-03-14T09:03:55;76197.09;;;-143.60;59.30
68329;BME280;55182;56.864;60.554;2023-03-14T09:06:20;76189.03;;;-143.60;58.74
68329;BME280;55182;56.864;60.554;2023-03-14T09:08:46;76170.97;;;-143.60;59.66
68329;BME280;55182;56.864;60.554;2023-03-14T09:11:12;76138.81;;;-143.60;59.05
68329;BME280;55182;56.864;60.554;2023-03-14T09:13:37;76106.66;;;-143.60;59.08
68329;BME280;55182;56.864;60.554;2023-03-14T09:16:03;76106.66;;;-143.60;57.27
68329;BME280;55182;56.864;60.554;2023-03-14T09:18:29;76112.69;;;-143.60;57.83
68329;BME280;55182;56.864;60.554;2023-03-14T09:20:55;76114.69;;;-143.60;57.06
68329;BME280;55182;56.864;60.554;2023-03-14T09:23:20;76116.69;;;-143.60;58.11
68329;BME280;55182;56.864;60.554;2023-03-14T09:25:46;76114.69;;;-143.60;58.46
68329;BME280;55182;56.864;60.554;2023-03-14T09:28:12;76128.75;;;-143.60;58.67
68329;BME280;55182;56.864;60.554;2023-03-14T09:30:37;76112.69;;;-143.60;58.47
68329;BME280;55182;56.864;60.554;2023-03-14T09:33:03;76110.69;;;-143.60;58.51
68329;BME280;55182;56.864;60.554;2023-03-14T09:35:28;76110.69;;;-143.60;58.69
68329;BME280;55182;56.864;60.554;2023-03-14T09:37:54;76102.63;;;-143.60;58.19
68329;BME280;55182;56.864;60.554;2023-03-14T09:40:19;76094.59;;;-143.60;57.88
68329;BME280;55182;56.864;60.554;2023-03-14T09:42:45;76086.56;;;-143.60;56.85
68329;BME280;55182;56.864;60.554;2023-03-14T09:45:21;76062.44;;;-143.60;56.92
68329;BME280;55182;56.864;60.554;2023-03-14T09:47:48;76014.22;;;-143.60;57.36
68329;BME280;55182;56.864;60.554;2023-03-14T09:50:14;75986.09;;;-143.60;56.94
68329;BME280;55182;56.864;60.554;2023-03-14T09:52:40;75972.03;;;-143.60;56.13
68329;BME280;55182;56.864;60.554;2023-03-14T09:55:14;75953.94;;;-143.60;57.24
68329;BME280;55182;56.864;60.554;2023-03-14T09:57:41;75957.97;;;-143.60;57.25
68329;BME280;55182;56.864;60.554;2023-03-14T10:00:17;75957.97;;;-143.60;53.35
68329;BME280;55182;56.864;60.554;2023-03-14T10:02:46;75951.94;;;-143.60;52.92
68329;BME280;55182;56.864;60.554;2023-03-14T10:05:15;75941.88;;;-143.60;52.30
68329;BME280;55182;56.864;60.554;2023-03-14T10:07:42;75937.88;;;-143.60;51.12
68329;BME280;55182;56.864;60.554;2023-03-14T10:10:11;75974.03;;;-143.60;49.27
68329;BME280;55182;56.864;60.554;2023-03-14T10:12:38;76026.28;;;-143.60;49.72
68329;BME280;55182;56.864;60.554;2023-03-14T10:15:05;76058.44;;;-143.60;49.70
68329;BME280;55182;56.864;60.554;2023-03-14T10:17:37;76078.53;;;-143.60;50.23
68329;BME280;55182;56.864;60.554;2023-03-14T10:20:04;76106.66;;;-143.60;50.10
68329;BME280;55182;56.864;60.554;2023-03-14T10:22:30;76132.78;;;-143.60;48.85
68329;BME280;55182;56.864;60.554;2023-03-14T10:24:57;76142.81;;;-143.60;49.77
68329;BME280;55182;56.864;60.554;2023-03-14T10:27:28;76138.81;;;-143.60;49.51
68329;BME280;55182;56.864;60.554;2023-03-14T10:29:55;76122.72;;;-143.60;49.18
68329;BME280;55182;56.864;60.554;2023-03-14T10:32:21;76088.56;;;-143.60;49.94
68329;BME280;55182;56.864;60.554;2023-03-14T10:35:06;76066.47;;;-143.60;48.83
68329;BME280;55182;56.864;60.554;2023-03-14T10:37:32;76050.38;;;-143.60;48.23
68329;BME280;55182;56.864;60.554;2023-03-14T10:40:02;76036.31;;;-143.60;45.58
68329;BME280;55182;56.864;60.554;2023-03-14T10:42:28;76022.25;;;-143.60;45.47
68329;BME280;55182;56.864;60.554;2023-03-14T10:44:56;76014.22;;;-143.60;45.95
68329;BME280;55182;56.864;60.554;2023-03-14T10:47:23;76060.44;;;-143.60;44.67
68329;BME280;55182;56.864;60.554;2023-03-14T10:49:49;76070.50;;;-143.60;45.07
68329;BME280;55182;56.864;60.554;2023-03-14T10:52:26;76094.59;;;-143.60;45.72
68329;BME280;55182;56.864;60.554;2023-03-14T10:54:54;76124.75;;;-143.60;47.25
68329;BME280;55182;56.864;60.554;2023-03-14T10:57:21;76136.81;;;-143.60;46.72
68329;BME280;55182;56.864;60.554;2023-03-14T10:59:47;76150.88;;;-143.60;47.28
68329;BME280;55182;56.864;60.554;2023-03-14T11:05:03;76154.88;;;-143.60;47.26
68329;BME280;55182;56.864;60.554;2023-03-14T11:07:35;76166.94;;;-143.60;46.76
68329;BME280;55182;56.864;60.554;2023-03-14T11:18:56;76142.81;;;-143.60;47.60
68329;BME280;55182;56.864;60.554;2023-03-14T11:20:53;76110.69;;;-143.60;47.46
68329;BME280;55182;56.864;60.554;2023-03-14T11:23:21;76118.72;;;-143.60;46.13
68329;BME280;55182;56.864;60.554;2023-03-14T11:28:24;76102.63;;;-143.60;46.45
68329;BME280;55182;56.864;60.554;2023-03-14T11:30:55;76118.72;;;-143.60;46.71
68329;BME280;55182;56.864;60.554;2023-03-14T11:34:10;76138.81;;;-143.60;47.49
68329;BME280;55182;56.864;60.554;2023-03-14T11:36:15;76174.97;;;-143.60;48.28
68329;BME280;55182;56.864;60.554;2023-03-14T11:41:18;76215.16;;;-143.60;48.68
68329;BME280;55182;56.864;60.554;2023-03-14T11:43:48;76235.25;;;-143.60;48.87
68329;BME280;55182;56.864;60.554;2023-03-14T11:46:19;76239.28;;;-143.60;49.16
68329;BME280;55182;56.864;60.554;2023-03-14T11:51:13;76245.31;;;-143.60;50.65
68329;BME280;55182;56.864;60.554;2023-03-14T11:56:11;76261.38;;;-143.60;52.14
68329;BME280;55182;56.864;60.554;2023-03-14T11:58:38;76255.34;;;-143.60;53.02
68329;BME280;55182;56.864;60.554;2023-03-14T12:01:09;76255.34;;;-143.60;53.91
68329;BME280;55182;56.864;60.554;2023-03-14T12:03:42;76243.31;;;-143.60;54.24
68329;BME280;55182;56.864;60.554;2023-03-14T12:08:53;76229.25;;;-143.60;54.26
68329;BME280;55182;56.864;60.554;2023-03-14T12:11:23;76241.28;;;-143.60;54.55
68329;BME280;55182;56.864;60.554;2023-03-14T12:13:51;76257.38;;;-143.60;54.52
68329;BME280;55182;56.864;60.554;2023-03-14T12:16:20;76263.41;;;-143.60;54.40
68329;BME280;55182;56.864;60.554;2023-03-14T12:18:50;76267.41;;;-143.60;53.79
68329;BME280;55182;56.864;60.554;2023-03-14T12:21:17;76259.38;;;-143.60;53.11
68329;BME280;55182;56.864;60.554;2023-03-14T12:23:52;76259.38;;;-143.60;51.30
68329;BME280;55182;56.864;60.554;2023-03-14T12:26:20;76251.34;;;-143.60;50.50
68329;BME280;55182;56.864;60.554;2023-03-14T12:28:49;76251.34;;;-143.60;49.66
68329;BME280;55182;56.864;60.554;2023-03-14T12:34:03;76235.25;;;-143.60;49.48
68329;BME280;55182;56.864;60.554;2023-03-14T12:44:49;76158.91;;;-143.60;48.30
68329;BME280;55182;56.864;60.554;2023-03-14T12:49:44;76132.78;;;-143.60;45.39
68329;BME280;55182;56.864;60.554;2023-03-14T12:52:13;76142.81;;;-143.60;45.09
68329;BME280;55182;56.864;60.554;2023-03-14T12:57:21;76181.00;;;-143.60;43.80
68329;BME280;55182;56.864;60.554;2023-03-14T12:59:51;76142.81;;;-143.60;43.35
68329;BME280;55182;56.864;60.554;2023-03-14T13:03:00;76118.72;;;-143.60;42.72
68329;BME280;55182;56.864;60.554;2023-03-14T13:05:11;76156.91;;;-143.60;41.96
68329;BME280;55182;56.864;60.554;2023-03-14T13:10:19;76225.22;;;-143.60;42.08
68329;BME280;55182;56.864;60.554;2023-03-14T13:12:53;76257.38;;;-143.60;42.92
68329;BME280;55182;56.864;60.554;2023-03-14T13:15:38;76271.44;;;-143.60;42.49
68329;BME280;55182;56.864;60.554;2023-03-14T13:18:17;76299.56;;;-143.60;41.30
68329;BME280;55182;56.864;60.554;2023-03-14T13:20:48;76309.63;;;-143.60;41.58
68329;BME280;55182;56.864;60.554;2023-03-14T13:25:47;76339.75;;;-143.60;40.06
68329;BME280;55182;56.864;60.554;2023-03-14T13:28:13;76355.84;;;-143.60;40.44